createdAt,value
2019-05-19T00:04:23.590Z,13.72
2019-05-19T00:09:27.196Z,13.62
2019-05-19T00:14:30.226Z,13.71
2019-05-19T00:19:33.700Z,13.63
2019-05-19T00:24:36.641Z,13.53
2019-05-19T00:29:39.898Z,13.61
2019-05-19T00:34:42.833Z,13.51
2019-05-19T00:39:46.383Z,13.57
2019-05-19T00:44:49.252Z,13.61
2019-05-19T00:49:52.517Z,13.46
2019-05-19T00:54:55.488Z,13.64
2019-05-19T00:59:59.197Z,13.72
2019-05-19T01:05:02.078Z,13.53
2019-05-19T01:10:05.829Z,13.45
2019-05-19T01:15:09.528Z,13.39
2019-05-19T01:20:13.109Z,13.18
2019-05-19T01:25:16.932Z,13.48
2019-05-19T01:30:20.025Z,13.60
2019-05-19T01:35:23.479Z,13.47
2019-05-19T01:40:26.806Z,13.52
2019-05-19T01:45:29.957Z,13.56
2019-05-19T01:50:32.824Z,13.51
2019-05-19T01:55:35.346Z,13.61
2019-05-19T02:00:38.539Z,13.56
2019-05-19T02:05:42.098Z,13.46
2019-05-19T02:10:45.664Z,13.48
2019-05-19T02:15:48.525Z,13.37
2019-05-19T02:20:51.425Z,13.15
2019-05-19T02:25:54.949Z,13.17
2019-05-19T02:30:58.129Z,13.15
2019-05-19T02:36:01.263Z,13.21
2019-05-19T02:41:04.230Z,13.04
2019-05-19T02:46:08.288Z,13.12
2019-05-19T02:51:13.279Z,13.09
2019-05-19T02:56:16.798Z,13.16
2019-05-19T03:01:19.601Z,13.08
2019-05-19T03:06:22.814Z,13.18
2019-05-19T03:11:25.716Z,12.82
2019-05-19T03:16:28.813Z,12.94
2019-05-19T03:21:31.922Z,13.15
2019-05-19T03:26:35.155Z,13.20
2019-05-19T03:31:45.352Z,13.02
2019-05-19T03:36:48.534Z,12.97
2019-05-19T03:41:51.142Z,13.01
2019-05-19T03:46:54.979Z,13.12
2019-05-19T03:51:58.269Z,13.01
2019-05-19T03:57:01.163Z,13.01
2019-05-19T04:02:03.488Z,12.94
2019-05-19T04:07:07.103Z,13.06
2019-05-19T04:12:10.045Z,13.18
2019-05-19T04:17:13.012Z,12.82
2019-05-19T04:22:15.983Z,12.88
2019-05-19T04:27:19.370Z,12.97
2019-05-19T04:32:22.608Z,12.66
2019-05-19T04:37:26.084Z,12.76
2019-05-19T04:42:29.640Z,12.80
2019-05-19T04:47:32.495Z,12.71
2019-05-19T04:52:35.041Z,12.91
2019-05-19T04:57:37.664Z,12.87
2019-05-19T05:02:39.913Z,12.98
2019-05-19T05:07:42.822Z,12.99
2019-05-19T05:12:45.420Z,12.92
2019-05-19T05:17:48.781Z,12.86
2019-05-19T05:22:51.731Z,13.03
2019-05-19T05:27:55.224Z,12.94
2019-05-19T05:32:58.107Z,12.99
2019-05-19T05:38:01.297Z,13.13
2019-05-19T05:43:04.265Z,13.23
2019-05-19T05:48:07.063Z,13.19
2019-05-19T05:53:10.332Z,13.31
2019-05-19T05:58:13.595Z,13.32
2019-05-19T06:03:16.073Z,13.33
2019-05-19T06:08:19.657Z,13.33
2019-05-19T06:13:22.834Z,13.17
2019-05-19T06:18:26.003Z,13.32
2019-05-19T06:23:29.429Z,13.33
2019-05-19T06:28:32.633Z,13.31
2019-05-19T06:33:35.853Z,13.47
2019-05-19T06:38:38.708Z,13.43
2019-05-19T06:43:42.307Z,13.30
2019-05-19T06:48:45.124Z,13.09
2019-05-19T06:53:48.613Z,13.17
2019-05-19T06:58:51.837Z,13.27
2019-05-19T07:03:55.315Z,13.62
2019-05-19T07:08:58.227Z,13.80
2019-05-19T07:14:03.134Z,13.97
2019-05-19T07:19:06.679Z,14.04
2019-05-19T07:24:09.896Z,13.95
2019-05-19T07:29:13.219Z,13.90
2019-05-19T07:34:16.258Z,14.33
2019-05-19T07:39:18.894Z,14.49
2019-05-19T07:44:22.132Z,14.45
2019-05-19T07:49:25.133Z,14.60
2019-05-19T07:54:28.027Z,14.75
2019-05-19T07:59:31.261Z,14.89
2019-05-19T08:04:34.018Z,14.81
2019-05-19T08:09:37.086Z,14.94
2019-05-19T08:14:40.545Z,15.34
2019-05-19T08:19:45.098Z,15.20
2019-05-19T08:24:48.622Z,15.06
2019-05-19T08:29:51.449Z,15.05
2019-05-19T08:34:54.831Z,14.89
2019-05-19T08:39:58.381Z,14.85
2019-05-19T08:45:00.849Z,14.96
2019-05-19T08:50:05.176Z,15.20
2019-05-19T08:55:08.032Z,15.58
2019-05-19T09:00:10.676Z,15.60
2019-05-19T09:05:14.201Z,15.54
2019-05-19T09:10:17.686Z,15.76
2019-05-19T09:15:22.315Z,15.91
2019-05-19T09:20:25.521Z,16.06
2019-05-19T09:25:28.982Z,16.53
2019-05-19T09:30:31.876Z,16.81
2019-05-19T09:35:35.165Z,16.83
2019-05-19T09:40:39.850Z,16.71
2019-05-19T09:45:42.648Z,16.54
2019-05-19T09:50:45.845Z,16.63
2019-05-19T09:55:49.052Z,17.16
2019-05-19T10:00:52.376Z,17.11
2019-05-19T10:05:56.364Z,17.39
2019-05-19T10:11:45.547Z,17.44
2019-05-19T10:16:49.111Z,17.70
2019-05-19T10:21:52.340Z,17.60
2019-05-19T10:26:55.849Z,18.05
2019-05-19T10:31:59.309Z,18.11
2019-05-19T10:37:02.313Z,18.31
2019-05-19T10:42:06.033Z,18.23
2019-05-19T10:47:09.310Z,18.43
2019-05-19T10:52:12.211Z,18.29
2019-05-19T10:57:17.757Z,18.13
2019-05-19T11:02:21.380Z,18.11
2019-05-19T11:07:24.335Z,18.75
2019-05-19T11:12:27.630Z,18.82
2019-05-19T11:17:30.556Z,19.41
2019-05-19T11:22:33.874Z,19.47
2019-05-19T11:27:36.805Z,19.59
2019-05-19T11:32:39.934Z,19.70
2019-05-19T11:37:43.137Z,20.31
2019-05-19T11:42:46.923Z,20.45
2019-05-19T11:47:50.249Z,20.48
2019-05-19T11:52:53.519Z,20.61
2019-05-19T11:57:56.926Z,20.48
2019-05-19T12:03:00.604Z,21.21
2019-05-19T12:08:03.868Z,21.37
2019-05-19T12:13:06.842Z,21.85
2019-05-19T12:18:10.489Z,21.98
2019-05-19T12:23:13.740Z,22.14
2019-05-19T12:28:17.539Z,22.72
2019-05-19T12:33:21.098Z,22.61
2019-05-19T12:38:24.277Z,23.14
2019-05-19T12:43:27.480Z,23.25
2019-05-19T12:48:31.162Z,23.41
2019-05-19T12:53:34.399Z,23.39
2019-05-19T12:58:38.012Z,23.66
2019-05-19T13:03:41.209Z,23.73
2019-05-19T13:08:44.528Z,23.64
2019-05-19T13:13:48.118Z,23.72
2019-05-19T13:18:51.437Z,23.39
2019-05-19T13:23:55.905Z,23.79
2019-05-19T13:28:59.271Z,24.35
2019-05-19T13:34:02.902Z,24.35
2019-05-19T13:39:06.866Z,24.44
2019-05-19T13:44:09.730Z,24.59
2019-05-19T13:49:13.243Z,24.92
2019-05-19T13:54:16.145Z,24.69
2019-05-19T13:59:19.738Z,25.68
2019-05-19T14:04:22.665Z,25.68
2019-05-19T14:09:25.569Z,25.28
2019-05-19T14:14:28.608Z,26.09
2019-05-19T14:19:31.891Z,26.09
2019-05-19T14:24:35.293Z,25.89
2019-05-19T14:29:38.834Z,25.70
2019-05-19T14:34:42.038Z,25.60
2019-05-19T14:39:45.555Z,25.71
2019-05-19T14:44:48.398Z,25.52
2019-05-19T14:49:51.721Z,25.52
2019-05-19T14:54:54.351Z,25.63
2019-05-19T14:59:57.345Z,25.69
2019-05-19T15:05:00.411Z,25.88
2019-05-19T15:10:03.868Z,25.88
2019-05-19T15:15:08.269Z,25.74
2019-05-19T15:20:14.251Z,25.74
2019-05-19T15:25:18.322Z,24.97
2019-05-19T15:30:21.859Z,25.41
2019-05-19T15:35:25.136Z,25.73
2019-05-19T15:40:28.335Z,25.73
2019-05-19T15:45:31.320Z,25.53
2019-05-19T15:50:34.336Z,25.53
2019-05-19T15:55:37.602Z,25.73
2019-05-19T16:00:41.106Z,25.97
2019-05-19T16:05:44.727Z,25.76
2019-05-19T16:10:48.345Z,24.12
2019-05-19T16:15:51.906Z,24.12
2019-05-19T16:20:55.208Z,23.90
2019-05-19T16:25:58.075Z,24.07
2019-05-19T16:31:01.639Z,24.44
2019-05-19T16:36:07.699Z,24.42
2019-05-19T16:41:10.266Z,23.81
2019-05-19T16:46:13.598Z,24.13
2019-05-19T16:51:16.686Z,23.67
2019-05-19T16:56:19.882Z,23.58
2019-05-19T17:01:23.217Z,22.98
2019-05-19T17:06:26.790Z,23.45
2019-05-19T17:11:31.472Z,23.25
2019-05-19T17:16:35.212Z,22.48
2019-05-19T17:21:38.451Z,22.90
2019-05-19T17:26:42.042Z,22.43
2019-05-19T17:31:44.957Z,22.44
2019-05-19T17:36:48.162Z,22.06
2019-05-19T17:41:51.878Z,22.04
2019-05-19T17:46:55.154Z,21.34
2019-05-19T17:51:59.053Z,20.36
2019-05-19T17:57:02.936Z,20.10
2019-05-19T18:02:06.242Z,19.20
2019-05-19T18:07:09.754Z,18.80
2019-05-19T18:12:13.451Z,18.25
2019-05-19T18:17:16.802Z,18.63
2019-05-19T18:22:19.817Z,18.30
2019-05-19T18:27:22.693Z,18.22
2019-05-19T18:32:26.009Z,17.81
2019-05-19T18:37:29.898Z,17.39
2019-05-19T18:42:32.889Z,17.25
2019-05-19T18:47:36.043Z,17.21
2019-05-19T18:52:39.303Z,16.94
2019-05-19T18:57:42.180Z,16.92
2019-05-19T19:02:47.954Z,17.05
2019-05-19T19:07:53.250Z,16.76
2019-05-19T19:12:56.832Z,16.74
2019-05-19T19:17:59.752Z,16.57
2019-05-19T19:23:03.440Z,16.53
2019-05-19T19:28:07.111Z,16.05
2019-05-19T19:33:10.318Z,16.14
2019-05-19T19:38:14.097Z,15.87
2019-05-19T19:43:17.598Z,15.99
2019-05-19T19:48:21.519Z,15.78
2019-05-19T19:53:24.790Z,15.72
2019-05-19T19:58:27.842Z,15.69
2019-05-19T20:03:31.795Z,15.99
2019-05-19T20:08:35.597Z,15.61
2019-05-19T20:13:39.287Z,15.65
2019-05-19T20:18:42.207Z,15.46
2019-05-19T20:23:45.173Z,15.58
2019-05-19T20:28:49.000Z,15.59
2019-05-19T20:33:52.671Z,15.16
2019-05-19T20:38:56.012Z,15.52
2019-05-19T20:43:58.955Z,15.69
2019-05-19T20:49:02.490Z,15.59
2019-05-19T20:54:05.041Z,15.61
2019-05-19T20:59:08.185Z,15.61
2019-05-19T21:04:11.329Z,15.56
2019-05-19T21:09:13.830Z,15.52
2019-05-19T21:14:17.050Z,15.57
2019-05-19T21:19:20.060Z,15.62
2019-05-19T21:24:23.212Z,15.65
2019-05-19T21:29:25.716Z,15.81
2019-05-19T21:34:28.917Z,15.62
2019-05-19T21:39:32.520Z,15.36
2019-05-19T21:44:35.458Z,15.43
2019-05-19T21:49:38.956Z,15.56
2019-05-19T21:54:43.246Z,15.27
2019-05-19T21:59:46.403Z,15.26
2019-05-19T22:04:49.727Z,14.90
2019-05-19T22:09:52.971Z,14.70
2019-05-19T22:14:56.477Z,14.80
2019-05-19T22:20:02.003Z,14.97
2019-05-19T22:25:05.722Z,14.67
2019-05-19T22:30:09.850Z,14.61
2019-05-19T22:35:13.795Z,14.80
2019-05-19T22:40:17.222Z,14.96
2019-05-19T22:45:20.065Z,14.88
2019-05-19T22:50:23.601Z,14.78
2019-05-19T22:55:27.260Z,14.87
2019-05-19T23:00:30.876Z,14.88
2019-05-19T23:05:33.842Z,14.76
2019-05-19T23:10:36.872Z,14.54
2019-05-19T23:15:40.039Z,14.58
2019-05-19T23:20:43.237Z,14.59
2019-05-19T23:25:46.091Z,14.51
2019-05-19T23:30:48.893Z,14.18
2019-05-19T23:35:52.196Z,14.30
2019-05-19T23:40:55.723Z,13.97
2019-05-19T23:45:59.321Z,14.17
2019-05-19T23:51:02.249Z,14.28
2019-05-19T23:56:05.936Z,14.43
